UAL1684 KDEN-KSLC
Flight info
| Callsign | UAL1684 |
|---|---|
| Flight time | 1h 2m |
| Altitude | 36000 |
| Route | ZIMMR4 CHNGY EKR RACER JAZZZ1 |
| Aircraft | B738/M-SDE2E3FGHIRWXY/LB1 |
Departure
| Time | 2026-05-07 21:59 |
|---|---|
| Airport | Denver International Airport (KDEN) |
Arrival
| Time | 2026-05-07 23:02 |
|---|---|
| Airport | Salt Lake City International Airport (KSLC) |
| Time | Latitude | Longitude | Altitude | Speed | Heading |
|---|---|---|---|---|---|
| 2026-05-07 21:22 | 39.85803 | -104.67039 | 5379 ft | 0 kts | 360° |
| 2026-05-07 21:47 | 39.85787 | -104.67039 | 5375 ft | 4 kts | 360° |
| 2026-05-07 21:48 | 39.85763 | -104.67039 | 5377 ft | 1 kts | 0° |
| 2026-05-07 21:48 | 39.85739 | -104.67039 | 5377 ft | 4 kts | 0° |
| 2026-05-07 21:48 | 39.85718 | -104.67039 | 5378 ft | 0 kts | 0° |
| 2026-05-07 21:51 | 39.85721 | -104.67053 | 5377 ft | 3 kts | 274° |
| 2026-05-07 21:52 | 39.85709 | -104.67080 | 5378 ft | 7 kts | 228° |
| 2026-05-07 21:52 | 39.85669 | -104.67123 | 5379 ft | 7 kts | 211° |
| 2026-05-07 21:52 | 39.85625 | -104.67155 | 5376 ft | 7 kts | 216° |
| 2026-05-07 21:52 | 39.85596 | -104.67206 | 5381 ft | 7 kts | 250° |
| 2026-05-07 21:53 | 39.85589 | -104.67267 | 5381 ft | 7 kts | 271° |
| 2026-05-07 21:53 | 39.85591 | -104.67352 | 5381 ft | 12 kts | 271° |
| 2026-05-07 21:53 | 39.85592 | -104.67466 | 5381 ft | 13 kts | 271° |
| 2026-05-07 21:53 | 39.85593 | -104.67580 | 5381 ft | 12 kts | 270° |
| 2026-05-07 21:54 | 39.85594 | -104.67690 | 5381 ft | 12 kts | 270° |
| 2026-05-07 21:54 | 39.85595 | -104.67797 | 5381 ft | 12 kts | 271° |
| 2026-05-07 21:54 | 39.85595 | -104.67914 | 5381 ft | 14 kts | 270° |
| 2026-05-07 21:54 | 39.85596 | -104.68058 | 5381 ft | 16 kts | 271° |
| 2026-05-07 21:55 | 39.85598 | -104.68204 | 5380 ft | 16 kts | 271° |
| 2026-05-07 21:55 | 39.85598 | -104.68332 | 5375 ft | 7 kts | 262° |
| 2026-05-07 21:55 | 39.85565 | -104.68392 | 5375 ft | 11 kts | 204° |
| 2026-05-07 21:55 | 39.85485 | -104.68400 | 5377 ft | 12 kts | 180° |
| 2026-05-07 21:56 | 39.85393 | -104.68401 | 5378 ft | 15 kts | 181° |
| 2026-05-07 21:56 | 39.85276 | -104.68402 | 5375 ft | 18 kts | 180° |
| 2026-05-07 21:56 | 39.85210 | -104.68449 | 5377 ft | 10 kts | 257° |
| 2026-05-07 21:56 | 39.85205 | -104.68541 | 5377 ft | 11 kts | 269° |
| 2026-05-07 21:57 | 39.85202 | -104.68680 | 5370 ft | 19 kts | 270° |
| 2026-05-07 21:57 | 39.85200 | -104.68855 | 5362 ft | 20 kts | 268° |
| 2026-05-07 21:57 | 39.85197 | -104.69041 | 5353 ft | 19 kts | 269° |
| 2026-05-07 21:57 | 39.85197 | -104.69218 | 5346 ft | 20 kts | 271° |
| 2026-05-07 21:58 | 39.85200 | -104.69406 | 5339 ft | 21 kts | 271° |
| 2026-05-07 21:58 | 39.85202 | -104.69553 | 5339 ft | 15 kts | 271° |
| 2026-05-07 21:58 | 39.85214 | -104.69653 | 5336 ft | 7 kts | 311° |
| 2026-05-07 21:58 | 39.85243 | -104.69658 | 5338 ft | 5 kts | 0° |
| 2026-05-07 21:59 | 39.85461 | -104.69656 | 5334 ft | 65 kts | 0° |
| 2026-05-07 21:59 | 39.86121 | -104.69652 | 5334 ft | 126 kts | 1° |
| 2026-05-07 21:59 | 39.87169 | -104.69621 | 5394 ft | 170 kts | 356° |
| 2026-05-07 21:59 | 39.88400 | -104.69528 | 6038 ft | 180 kts | 355° |
| 2026-05-07 22:00 | 39.89694 | -104.69464 | 6681 ft | 194 kts | 354° |
| 2026-05-07 22:00 | 39.91052 | -104.69791 | 6882 ft | 211 kts | 329° |
| 2026-05-07 22:00 | 39.92308 | -104.70939 | 7121 ft | 229 kts | 309° |
| 2026-05-07 22:00 | 39.93027 | -104.72780 | 7534 ft | 241 kts | 283° |
| 2026-05-07 22:01 | 39.93185 | -104.75061 | 7936 ft | 261 kts | 272° |
| 2026-05-07 22:01 | 39.93181 | -104.77429 | 8866 ft | 263 kts | 271° |
| 2026-05-07 22:01 | 39.93165 | -104.79799 | 9685 ft | 264 kts | 271° |
| 2026-05-07 22:01 | 39.93163 | -104.82227 | 10277 ft | 269 kts | 272° |
| 2026-05-07 22:02 | 39.93173 | -104.84660 | 11242 ft | 268 kts | 272° |
| 2026-05-07 22:02 | 39.93188 | -104.87101 | 12092 ft | 273 kts | 272° |
| 2026-05-07 22:02 | 39.93206 | -104.89603 | 12867 ft | 279 kts | 272° |
| 2026-05-07 22:02 | 39.93242 | -104.92122 | 13771 ft | 278 kts | 273° |
| 2026-05-07 22:03 | 39.93304 | -104.94680 | 14441 ft | 286 kts | 274° |
| 2026-05-07 22:03 | 39.93370 | -104.97290 | 15155 ft | 291 kts | 274° |
| 2026-05-07 22:03 | 39.93434 | -104.99934 | 15920 ft | 293 kts | 274° |
| 2026-05-07 22:03 | 39.93497 | -105.02586 | 16834 ft | 295 kts | 275° |
| 2026-05-07 22:04 | 39.93558 | -105.05277 | 17592 ft | 299 kts | 274° |
| 2026-05-07 22:04 | 39.93620 | -105.07999 | 18346 ft | 302 kts | 275° |
| 2026-05-07 22:04 | 39.93682 | -105.10750 | 19031 ft | 305 kts | 275° |
| 2026-05-07 22:04 | 39.93743 | -105.13518 | 19762 ft | 306 kts | 275° |
| 2026-05-07 22:05 | 39.93804 | -105.16300 | 20467 ft | 308 kts | 275° |
| 2026-05-07 22:05 | 39.93865 | -105.19109 | 21144 ft | 311 kts | 275° |
| 2026-05-07 22:05 | 39.93927 | -105.21926 | 21820 ft | 313 kts | 275° |
| 2026-05-07 22:05 | 39.94081 | -105.24765 | 22444 ft | 314 kts | 279° |
| 2026-05-07 22:06 | 39.94320 | -105.27606 | 23099 ft | 316 kts | 279° |
| 2026-05-07 22:06 | 39.94568 | -105.30473 | 23575 ft | 324 kts | 279° |
| 2026-05-07 22:06 | 39.94813 | -105.33428 | 23939 ft | 332 kts | 280° |
| 2026-05-07 22:06 | 39.95060 | -105.36496 | 24076 ft | 349 kts | 279° |
| 2026-05-07 22:07 | 39.95313 | -105.39714 | 24193 ft | 365 kts | 279° |
| 2026-05-07 22:07 | 39.95574 | -105.43057 | 24424 ft | 375 kts | 279° |
| 2026-05-07 22:07 | 39.95838 | -105.46449 | 24892 ft | 378 kts | 279° |
| 2026-05-07 22:07 | 39.96102 | -105.49856 | 25474 ft | 378 kts | 279° |
| 2026-05-07 22:08 | 39.96367 | -105.53261 | 26039 ft | 379 kts | 279° |
| 2026-05-07 22:08 | 39.96633 | -105.56696 | 26498 ft | 382 kts | 279° |
| 2026-05-07 22:08 | 39.96897 | -105.60148 | 26956 ft | 384 kts | 279° |
| 2026-05-07 22:08 | 39.97162 | -105.63628 | 27437 ft | 386 kts | 278° |
| 2026-05-07 22:09 | 39.97419 | -105.67122 | 27785 ft | 390 kts | 278° |
| 2026-05-07 22:09 | 39.97631 | -105.70707 | 27850 ft | 402 kts | 277° |
| 2026-05-07 22:09 | 39.97817 | -105.74395 | 27921 ft | 414 kts | 277° |
| 2026-05-07 22:09 | 39.97996 | -105.78182 | 28001 ft | 423 kts | 277° |
| 2026-05-07 22:10 | 39.98176 | -105.82038 | 28245 ft | 429 kts | 277° |
| 2026-05-07 22:10 | 39.98356 | -105.85876 | 28637 ft | 430 kts | 277° |
| 2026-05-07 22:10 | 39.98543 | -105.89821 | 29054 ft | 430 kts | 277° |
| 2026-05-07 22:10 | 39.98730 | -105.93712 | 29440 ft | 432 kts | 277° |
| 2026-05-07 22:11 | 39.98917 | -105.97589 | 29901 ft | 431 kts | 277° |
| 2026-05-07 22:11 | 39.99104 | -106.01480 | 30434 ft | 427 kts | 277° |
| 2026-05-07 22:11 | 39.99286 | -106.05310 | 31057 ft | 421 kts | 277° |
| 2026-05-07 22:11 | 39.99466 | -106.09108 | 31563 ft | 417 kts | 278° |
| 2026-05-07 22:12 | 39.99643 | -106.12824 | 31962 ft | 417 kts | 278° |
| 2026-05-07 22:12 | 39.99820 | -106.16587 | 32457 ft | 413 kts | 278° |
| 2026-05-07 22:12 | 39.99996 | -106.20358 | 33015 ft | 409 kts | 278° |
| 2026-05-07 22:12 | 40.00164 | -106.23992 | 33446 ft | 407 kts | 279° |
| 2026-05-07 22:13 | 40.00335 | -106.27672 | 33818 ft | 406 kts | 279° |
| 2026-05-07 22:13 | 40.00504 | -106.31350 | 34180 ft | 405 kts | 279° |
| 2026-05-07 22:13 | 40.00671 | -106.35010 | 34461 ft | 405 kts | 279° |
| 2026-05-07 22:13 | 40.00838 | -106.38685 | 34672 ft | 407 kts | 278° |
| 2026-05-07 22:14 | 40.01004 | -106.42372 | 34899 ft | 408 kts | 278° |
| 2026-05-07 22:14 | 40.01168 | -106.46067 | 35227 ft | 407 kts | 278° |
| 2026-05-07 22:14 | 40.01330 | -106.49750 | 35489 ft | 407 kts | 278° |
| 2026-05-07 22:14 | 40.01493 | -106.53447 | 35622 ft | 408 kts | 278° |
| 2026-05-07 22:15 | 40.01652 | -106.57138 | 35931 ft | 407 kts | 278° |
| 2026-05-07 22:15 | 40.01811 | -106.60838 | 36026 ft | 411 kts | 278° |
| 2026-05-07 22:15 | 40.02128 | -106.68302 | 36041 ft | 412 kts | 278° |
| 2026-05-07 22:16 | 40.02436 | -106.75719 | 36045 ft | 407 kts | 278° |
| 2026-05-07 22:16 | 40.02741 | -106.83121 | 36046 ft | 409 kts | 278° |
| 2026-05-07 22:17 | 40.03042 | -106.90529 | 36051 ft | 409 kts | 278° |
| 2026-05-07 22:17 | 40.03338 | -106.97938 | 36070 ft | 409 kts | 278° |
| 2026-05-07 22:18 | 40.03774 | -107.09062 | 36076 ft | 409 kts | 278° |
| 2026-05-07 22:19 | 40.04057 | -107.16445 | 36082 ft | 410 kts | 278° |
| 2026-05-07 22:19 | 40.04322 | -107.23879 | 36058 ft | 409 kts | 277° |
| 2026-05-07 22:20 | 40.04579 | -107.31249 | 36080 ft | 410 kts | 278° |
| 2026-05-07 22:20 | 40.04871 | -107.38691 | 36079 ft | 412 kts | 278° |
| 2026-05-07 22:21 | 40.05148 | -107.46168 | 36061 ft | 413 kts | 278° |
| 2026-05-07 22:21 | 40.05411 | -107.53652 | 36059 ft | 412 kts | 278° |
| 2026-05-07 22:22 | 40.05670 | -107.61118 | 36033 ft | 413 kts | 278° |
| 2026-05-07 22:22 | 40.05922 | -107.68588 | 36040 ft | 413 kts | 278° |
| 2026-05-07 22:23 | 40.06172 | -107.76090 | 36002 ft | 414 kts | 277° |
| 2026-05-07 22:23 | 40.06417 | -107.83603 | 36108 ft | 414 kts | 277° |
| 2026-05-07 22:24 | 40.06657 | -107.91113 | 36112 ft | 414 kts | 277° |
| 2026-05-07 22:24 | 40.06951 | -107.98606 | 36115 ft | 414 kts | 278° |
| 2026-05-07 22:25 | 40.07312 | -108.06112 | 36089 ft | 414 kts | 278° |
| 2026-05-07 22:25 | 40.07665 | -108.13611 | 36062 ft | 414 kts | 278° |
| 2026-05-07 22:26 | 40.08006 | -108.21109 | 35994 ft | 414 kts | 278° |
| 2026-05-07 22:26 | 40.08338 | -108.28608 | 35997 ft | 414 kts | 278° |
| 2026-05-07 22:27 | 40.08664 | -108.36112 | 36018 ft | 414 kts | 278° |
| 2026-05-07 22:27 | 40.08982 | -108.43559 | 35974 ft | 413 kts | 278° |
| 2026-05-07 22:28 | 40.09329 | -108.51007 | 35996 ft | 408 kts | 279° |
| 2026-05-07 22:28 | 40.09619 | -108.58394 | 35994 ft | 407 kts | 278° |
| 2026-05-07 22:29 | 40.09907 | -108.65764 | 35988 ft | 405 kts | 278° |
| 2026-05-07 22:29 | 40.10200 | -108.73088 | 35998 ft | 403 kts | 278° |
| 2026-05-07 22:30 | 40.10492 | -108.80391 | 35974 ft | 402 kts | 279° |
| 2026-05-07 22:30 | 40.10776 | -108.87669 | 35984 ft | 402 kts | 279° |
| 2026-05-07 22:31 | 40.11055 | -108.94978 | 35999 ft | 403 kts | 278° |
| 2026-05-07 22:31 | 40.11330 | -109.02315 | 35988 ft | 406 kts | 278° |
| 2026-05-07 22:32 | 40.11603 | -109.09700 | 35991 ft | 408 kts | 278° |
| 2026-05-07 22:32 | 40.11871 | -109.17118 | 35973 ft | 410 kts | 278° |
| 2026-05-07 22:33 | 40.12137 | -109.24579 | 35980 ft | 411 kts | 278° |
| 2026-05-07 22:33 | 40.12397 | -109.32047 | 35979 ft | 413 kts | 278° |
| 2026-05-07 22:34 | 40.12654 | -109.39547 | 35988 ft | 412 kts | 278° |
| 2026-05-07 22:34 | 40.12900 | -109.46947 | 35964 ft | 404 kts | 278° |
| 2026-05-07 22:35 | 40.13143 | -109.54280 | 35984 ft | 404 kts | 278° |
| 2026-05-07 22:35 | 40.13342 | -109.60380 | 35985 ft | 405 kts | 278° |
| 2026-05-07 22:36 | 40.13578 | -109.67733 | 35979 ft | 405 kts | 278° |
| 2026-05-07 22:36 | 40.13808 | -109.75113 | 35968 ft | 406 kts | 278° |
| 2026-05-07 22:37 | 40.14035 | -109.82540 | 35963 ft | 407 kts | 278° |
| 2026-05-07 22:37 | 40.14255 | -109.89883 | 35977 ft | 407 kts | 278° |
| 2026-05-07 22:38 | 40.14475 | -109.97320 | 35457 ft | 413 kts | 278° |
| 2026-05-07 22:38 | 40.14583 | -110.01066 | 34864 ft | 412 kts | 278° |
| 2026-05-07 22:38 | 40.14689 | -110.04804 | 34255 ft | 412 kts | 277° |
| 2026-05-07 22:38 | 40.14795 | -110.08545 | 33561 ft | 413 kts | 277° |
| 2026-05-07 22:39 | 40.14898 | -110.12290 | 33064 ft | 409 kts | 277° |
| 2026-05-07 22:39 | 40.14956 | -110.15972 | 32547 ft | 407 kts | 275° |
| 2026-05-07 22:39 | 40.14936 | -110.19656 | 32092 ft | 403 kts | 275° |
| 2026-05-07 22:39 | 40.14888 | -110.23307 | 31654 ft | 400 kts | 274° |
| 2026-05-07 22:40 | 40.14835 | -110.26926 | 31203 ft | 397 kts | 274° |
| 2026-05-07 22:40 | 40.14787 | -110.30520 | 30761 ft | 393 kts | 275° |
| 2026-05-07 22:40 | 40.14745 | -110.34073 | 30335 ft | 389 kts | 275° |
| 2026-05-07 22:40 | 40.14707 | -110.37613 | 29884 ft | 392 kts | 275° |
| 2026-05-07 22:41 | 40.14674 | -110.41188 | 29374 ft | 393 kts | 274° |
| 2026-05-07 22:41 | 40.14639 | -110.44747 | 28885 ft | 390 kts | 274° |
| 2026-05-07 22:41 | 40.14603 | -110.48267 | 28432 ft | 385 kts | 274° |
| 2026-05-07 22:41 | 40.14566 | -110.51748 | 27995 ft | 381 kts | 274° |
| 2026-05-07 22:42 | 40.14529 | -110.55199 | 27534 ft | 378 kts | 274° |
| 2026-05-07 22:42 | 40.14493 | -110.58615 | 27093 ft | 375 kts | 274° |
| 2026-05-07 22:42 | 40.14455 | -110.62006 | 26664 ft | 372 kts | 274° |
| 2026-05-07 22:42 | 40.14417 | -110.65378 | 26227 ft | 369 kts | 274° |
| 2026-05-07 22:43 | 40.14378 | -110.68717 | 25802 ft | 367 kts | 274° |
| 2026-05-07 22:43 | 40.14339 | -110.72038 | 25363 ft | 365 kts | 274° |
| 2026-05-07 22:43 | 40.14300 | -110.75346 | 24972 ft | 362 kts | 274° |
| 2026-05-07 22:43 | 40.14260 | -110.78637 | 24544 ft | 363 kts | 273° |
| 2026-05-07 22:44 | 40.14218 | -110.81933 | 24091 ft | 363 kts | 273° |
| 2026-05-07 22:44 | 40.14174 | -110.85222 | 23679 ft | 361 kts | 273° |
| 2026-05-07 22:44 | 40.14130 | -110.88493 | 23174 ft | 358 kts | 273° |
| 2026-05-07 22:44 | 40.14087 | -110.91732 | 22749 ft | 356 kts | 273° |
| 2026-05-07 22:45 | 40.14042 | -110.94958 | 22285 ft | 354 kts | 273° |
| 2026-05-07 22:45 | 40.13996 | -110.98160 | 21884 ft | 351 kts | 273° |
| 2026-05-07 22:45 | 40.13950 | -111.01335 | 21452 ft | 348 kts | 273° |
| 2026-05-07 22:45 | 40.13904 | -111.04484 | 21043 ft | 344 kts | 273° |
| 2026-05-07 22:46 | 40.13857 | -111.07594 | 20636 ft | 341 kts | 273° |
| 2026-05-07 22:46 | 40.13810 | -111.10684 | 20241 ft | 338 kts | 273° |
| 2026-05-07 22:46 | 40.13764 | -111.13745 | 19834 ft | 336 kts | 273° |
| 2026-05-07 22:46 | 40.13716 | -111.16779 | 19422 ft | 334 kts | 272° |
| 2026-05-07 22:47 | 40.13667 | -111.19806 | 19023 ft | 331 kts | 272° |
| 2026-05-07 22:47 | 40.13618 | -111.22804 | 18635 ft | 329 kts | 272° |
| 2026-05-07 22:47 | 40.13568 | -111.25788 | 18210 ft | 327 kts | 272° |
| 2026-05-07 22:47 | 40.13518 | -111.28753 | 17771 ft | 325 kts | 272° |
| 2026-05-07 22:48 | 40.13467 | -111.31702 | 17314 ft | 324 kts | 272° |
| 2026-05-07 22:48 | 40.13414 | -111.34639 | 16900 ft | 322 kts | 272° |
| 2026-05-07 22:48 | 40.13363 | -111.37516 | 16505 ft | 320 kts | 271° |
| 2026-05-07 22:48 | 40.13312 | -111.40413 | 16120 ft | 318 kts | 271° |
| 2026-05-07 22:49 | 40.13261 | -111.43296 | 15686 ft | 317 kts | 271° |
| 2026-05-07 22:49 | 40.13209 | -111.46161 | 15381 ft | 312 kts | 271° |
| 2026-05-07 22:49 | 40.13156 | -111.48940 | 15262 ft | 301 kts | 271° |
| 2026-05-07 22:49 | 40.13105 | -111.51653 | 15121 ft | 296 kts | 270° |
| 2026-05-07 22:50 | 40.13103 | -111.54302 | 14957 ft | 288 kts | 278° |
| 2026-05-07 22:50 | 40.13645 | -111.56781 | 14833 ft | 282 kts | 293° |
| 2026-05-07 22:50 | 40.14443 | -111.59110 | 14668 ft | 281 kts | 294° |
| 2026-05-07 22:50 | 40.15245 | -111.61431 | 14510 ft | 280 kts | 294° |
| 2026-05-07 22:51 | 40.16041 | -111.63761 | 14336 ft | 282 kts | 294° |
| 2026-05-07 22:51 | 40.16846 | -111.66117 | 14166 ft | 285 kts | 296° |
| 2026-05-07 22:51 | 40.17962 | -111.68255 | 13985 ft | 288 kts | 311° |
| 2026-05-07 22:51 | 40.19415 | -111.70075 | 13836 ft | 289 kts | 315° |
| 2026-05-07 22:52 | 40.20906 | -111.71822 | 13631 ft | 288 kts | 316° |
| 2026-05-07 22:52 | 40.22391 | -111.73553 | 13444 ft | 287 kts | 315° |
| 2026-05-07 22:52 | 40.23871 | -111.75291 | 13266 ft | 286 kts | 315° |
| 2026-05-07 22:52 | 40.25344 | -111.77033 | 13089 ft | 285 kts | 315° |
| 2026-05-07 22:53 | 40.26809 | -111.78774 | 12909 ft | 284 kts | 315° |
| 2026-05-07 22:53 | 40.28268 | -111.80515 | 12724 ft | 284 kts | 316° |
| 2026-05-07 22:53 | 40.29727 | -111.82259 | 12560 ft | 284 kts | 315° |
| 2026-05-07 22:53 | 40.31180 | -111.83998 | 12385 ft | 281 kts | 315° |
| 2026-05-07 22:54 | 40.32606 | -111.85707 | 12195 ft | 275 kts | 315° |
| 2026-05-07 22:54 | 40.34003 | -111.87382 | 12019 ft | 269 kts | 315° |
| 2026-05-07 22:54 | 40.35466 | -111.88878 | 11726 ft | 270 kts | 332° |
| 2026-05-07 22:54 | 40.37254 | -111.89606 | 11480 ft | 269 kts | 343° |
| 2026-05-07 22:55 | 40.39081 | -111.90173 | 11179 ft | 269 kts | 343° |
| 2026-05-07 22:55 | 40.40900 | -111.90728 | 10896 ft | 269 kts | 344° |
| 2026-05-07 22:55 | 40.42723 | -111.91289 | 10615 ft | 268 kts | 343° |
| 2026-05-07 22:55 | 40.44541 | -111.91854 | 10335 ft | 268 kts | 343° |
| 2026-05-07 22:56 | 40.46356 | -111.92422 | 10056 ft | 268 kts | 343° |
| 2026-05-07 22:56 | 40.48146 | -111.92983 | 9765 ft | 269 kts | 343° |
| 2026-05-07 22:56 | 40.49961 | -111.93559 | 9453 ft | 269 kts | 342° |
| 2026-05-07 22:56 | 40.51778 | -111.94132 | 9152 ft | 268 kts | 343° |
| 2026-05-07 22:57 | 40.53602 | -111.94649 | 8819 ft | 270 kts | 347° |
| 2026-05-07 22:57 | 40.55479 | -111.94847 | 8447 ft | 270 kts | 353° |
| 2026-05-07 22:57 | 40.57332 | -111.94982 | 8090 ft | 264 kts | 351° |
| 2026-05-07 22:57 | 40.59137 | -111.95170 | 7772 ft | 255 kts | 352° |
| 2026-05-07 22:58 | 40.60869 | -111.95373 | 7445 ft | 244 kts | 350° |
| 2026-05-07 22:58 | 40.62516 | -111.95567 | 7181 ft | 232 kts | 352° |
| 2026-05-07 22:58 | 40.64083 | -111.95751 | 6904 ft | 219 kts | 352° |
| 2026-05-07 22:58 | 40.65535 | -111.95922 | 6649 ft | 201 kts | 353° |
| 2026-05-07 22:59 | 40.66879 | -111.96077 | 6401 ft | 187 kts | 354° |
| 2026-05-07 22:59 | 40.68112 | -111.96221 | 6150 ft | 171 kts | 353° |
| 2026-05-07 22:59 | 40.69243 | -111.96352 | 5926 ft | 160 kts | 351° |
| 2026-05-07 22:59 | 40.70350 | -111.96482 | 5724 ft | 160 kts | 352° |
| 2026-05-07 23:00 | 40.71463 | -111.96614 | 5461 ft | 159 kts | 351° |
| 2026-05-07 23:00 | 40.72550 | -111.96752 | 5232 ft | 156 kts | 354° |
| 2026-05-07 23:00 | 40.73632 | -111.96864 | 4982 ft | 155 kts | 352° |
| 2026-05-07 23:00 | 40.74690 | -111.96992 | 4767 ft | 152 kts | 353° |
| 2026-05-07 23:01 | 40.75736 | -111.97113 | 4594 ft | 151 kts | 356° |
| 2026-05-07 23:01 | 40.76780 | -111.97222 | 4388 ft | 150 kts | 354° |
| 2026-05-07 23:01 | 40.77817 | -111.97353 | 4264 ft | 147 kts | 353° |
| 2026-05-07 23:01 | 40.78750 | -111.97465 | 4230 ft | 120 kts | 356° |
| 2026-05-07 23:02 | 40.79448 | -111.97546 | 4228 ft | 64 kts | 354° |
| 2026-05-07 23:02 | 40.79657 | -111.97578 | 4228 ft | 14 kts | 341° |
| 2026-05-07 23:02 | 40.79691 | -111.97647 | 4229 ft | 9 kts | 272° |
| 2026-05-07 23:02 | 40.79688 | -111.97705 | 4229 ft | 4 kts | 265° |
| 2026-05-07 23:03 | 40.79687 | -111.97720 | 4229 ft | 0 kts | 265° |
| 2026-05-07 23:03 | 40.79674 | -111.97749 | 4229 ft | 7 kts | 223° |
| 2026-05-07 23:03 | 40.79627 | -111.97776 | 4229 ft | 8 kts | 190° |
| 2026-05-07 23:03 | 40.79560 | -111.97775 | 4229 ft | 11 kts | 173° |
| 2026-05-07 23:04 | 40.79479 | -111.97766 | 4230 ft | 14 kts | 176° |
| 2026-05-07 23:04 | 40.79359 | -111.97752 | 4230 ft | 19 kts | 175° |
| 2026-05-07 23:04 | 40.79231 | -111.97738 | 4230 ft | 18 kts | 175° |
| 2026-05-07 23:04 | 40.79108 | -111.97723 | 4230 ft | 17 kts | 175° |
| 2026-05-07 23:05 | 40.78992 | -111.97709 | 4231 ft | 17 kts | 175° |
| 2026-05-07 23:05 | 40.78882 | -111.97698 | 4230 ft | 14 kts | 177° |
| 2026-05-07 23:05 | 40.78829 | -111.97768 | 4230 ft | 13 kts | 261° |
| 2026-05-07 23:05 | 40.78819 | -111.97888 | 4230 ft | 14 kts | 264° |
| 2026-05-07 23:06 | 40.78810 | -111.98014 | 4230 ft | 15 kts | 265° |
| 2026-05-07 23:06 | 40.78801 | -111.98149 | 4230 ft | 15 kts | 264° |
| 2026-05-07 23:06 | 40.78792 | -111.98279 | 4230 ft | 16 kts | 264° |
| 2026-05-07 23:06 | 40.78780 | -111.98433 | 4230 ft | 17 kts | 265° |
| 2026-05-07 23:07 | 40.78770 | -111.98578 | 4230 ft | 15 kts | 264° |
| 2026-05-07 23:07 | 40.78761 | -111.98704 | 4230 ft | 14 kts | 264° |
| 2026-05-07 23:07 | 40.78754 | -111.98810 | 4230 ft | 13 kts | 265° |
| 2026-05-07 23:07 | 40.78752 | -111.98887 | 4230 ft | 4 kts | 291° |
| 2026-05-07 23:08 | 40.78777 | -111.98895 | 4230 ft | 4 kts | 4° |
| 2026-05-07 23:08 | 40.78805 | -111.98892 | 4230 ft | 4 kts | 6° |
| 2026-05-07 23:08 | 40.78813 | -111.98891 | 4230 ft | 0 kts | 6° |
| 2026-05-07 23:08 | 40.78819 | -111.98890 | 4230 ft | 0 kts | 6° |